KTYS/TYS METAR and TAF weather

Enter ICAO airport designator
Station Type Date Time Source
KTYS METAR 2022/01/28 23:53 UTC NOAA

KTYS 282353Z 28008KT 10SM FEW045 SCT090 BKN150 BKN250 00/M04 A3006 RMK AO2 SNE2258 SLP184 P0000 60000 T00001039 10056 20000 51014


Station Type Date Time Source
KTYS Decoded METAR 2022/01/28 23:53 UTC NOAA

MCGHEE TYSON AIRPORT, TN, United States (KTYS) 35-49N 083-59W 302M
Jan 28, 2022 - 06:53 PM EST / 2022.01.28 2353 UTC
Wind: from the W (280 degrees) at 9 MPH (8 KT):0
Visibility: 10 mile(s):0
Sky conditions: mostly cloudy
Precipitation last hour: A trace
Temperature: 32.0 F (0.0 C)
Windchill: 24 F (-4 C):1
Dew Point: 25.0 F (-3.9 C)
Relative Humidity: 74%
Pressure (altimeter): 30.06 in. Hg (1017 hPa)
Pressure tendency: 0.04 inches (1.4 hPa) higher than three hours ago
ob: KTYS 282353Z 28008KT 10SM FEW045 SCT090 BKN150 BKN250 00/M04 A3006 RMK AO2 SNE2258 SLP184 P0000 60000 T00001039 10056 20000 51014
cycle: 0

Station Type Date Time Source
KTYS TAF 2022/01/28 18:22 UTC NOAA

TAF KTYS 281720Z 2818/2918 29007KT P6SM SCT030 OVC060
FM282000 30011KT P6SM SCT025 OVC040
FM290000 29012G20KT P6SM VCSH SCT025 OVC035 PROB30 2903/2909 4SM -SHSN BR BKN025
FM290900 33012KT P6SM BKN035

Example: see airport list